sensor_id;sensor_type;location;lat;lon;timestamp;temperature;humidity
4749;DHT22;2388;53.582;9.962;2024-02-26T00:00:59;6.00;99.90
4749;DHT22;2388;53.582;9.962;2024-02-26T00:03:25;6.00;99.90
4749;DHT22;2388;53.582;9.962;2024-02-26T00:05:50;6.00;99.90
4749;DHT22;2388;53.582;9.962;2024-02-26T00:08:15;6.00;99.90
4749;DHT22;2388;53.582;9.962;2024-02-26T00:10:41;6.00;99.90
4749;DHT22;2388;53.582;9.962;2024-02-26T00:13:08;6.00;99.90
4749;DHT22;2388;53.582;9.962;2024-02-26T00:15:33;6.00;99.90
4749;DHT22;2388;53.582;9.962;2024-02-26T00:18:00;5.90;99.90
4749;DHT22;2388;53.582;9.962;2024-02-26T00:20:26;5.90;99.90
4749;DHT22;2388;53.582;9.962;2024-02-26T00:22:51;5.90;99.90
4749;DHT22;2388;53.582;9.962;2024-02-26T00:25:17;5.90;99.90
4749;DHT22;2388;53.582;9.962;2024-02-26T00:27:43;5.80;99.90
4749;DHT22;2388;53.582;9.962;2024-02-26T00:30:09;5.80;99.90
4749;DHT22;2388;53.582;9.962;2024-02-26T00:32:35;5.80;99.90
4749;DHT22;2388;53.582;9.962;2024-02-26T00:35:01;5.80;99.90
4749;DHT22;2388;53.582;9.962;2024-02-26T00:37:26;5.70;99.90
4749;DHT22;2388;53.582;9.962;2024-02-26T00:39:52;5.70;99.90
4749;DHT22;2388;53.582;9.962;2024-02-26T00:42:19;5.70;99.90
4749;DHT22;2388;53.582;9.962;2024-02-26T00:44:44;5.70;99.90
4749;DHT22;2388;53.582;9.962;2024-02-26T00:47:10;5.60;99.90
4749;DHT22;2388;53.582;9.962;2024-02-26T00:49:36;5.50;99.90
4749;DHT22;2388;53.582;9.962;2024-02-26T00:52:02;5.40;99.90
4749;DHT22;2388;53.582;9.962;2024-02-26T00:54:27;5.40;99.90
4749;DHT22;2388;53.582;9.962;2024-02-26T00:56:53;5.40;99.90
4749;DHT22;2388;53.582;9.962;2024-02-26T00:59:18;5.40;99.90
4749;DHT22;2388;53.582;9.962;2024-02-26T01:01:44;5.20;99.90
4749;DHT22;2388;53.582;9.962;2024-02-26T01:04:09;5.20;99.90
4749;DHT22;2388;53.582;9.962;2024-02-26T01:06:35;5.20;99.90
4749;DHT22;2388;53.582;9.962;2024-02-26T01:09:00;5.20;99.90
4749;DHT22;2388;53.582;9.962;2024-02-26T01:11:26;5.20;99.90
4749;DHT22;2388;53.582;9.962;2024-02-26T01:13:51;5.20;99.90
4749;DHT22;2388;53.582;9.962;2024-02-26T01:16:22;5.10;99.90
4749;DHT22;2388;53.582;9.962;2024-02-26T01:18:47;5.10;99.90
4749;DHT22;2388;53.582;9.962;2024-02-26T01:21:13;5.10;99.90
4749;DHT22;2388;53.582;9.962;2024-02-26T01:23:38;5.10;99.90
4749;DHT22;2388;53.582;9.962;2024-02-26T01:26:04;5.10;99.90
4749;DHT22;2388;53.582;9.962;2024-02-26T01:28:30;5.00;99.90
4749;DHT22;2388;53.582;9.962;2024-02-26T01:30:55;5.00;99.90
4749;DHT22;2388;53.582;9.962;2024-02-26T01:33:21;5.00;99.90
4749;DHT22;2388;53.582;9.962;2024-02-26T01:35:46;4.90;99.90
4749;DHT22;2388;53.582;9.962;2024-02-26T01:38:12;4.90;99.90
4749;DHT22;2388;53.582;9.962;2024-02-26T01:40:38;4.90;99.90
4749;DHT22;2388;53.582;9.962;2024-02-26T01:43:03;4.90;99.90
4749;DHT22;2388;53.582;9.962;2024-02-26T01:45:29;4.90;99.90
4749;DHT22;2388;53.582;9.962;2024-02-26T01:47:55;4.90;99.90
4749;DHT22;2388;53.582;9.962;2024-02-26T01:50:22;4.90;99.90
4749;DHT22;2388;53.582;9.962;2024-02-26T01:52:49;4.80;99.90
4749;DHT22;2388;53.582;9.962;2024-02-26T01:55:17;4.80;99.90
4749;DHT22;2388;53.582;9.962;2024-02-26T01:57:44;4.80;99.90
4749;DHT22;2388;53.582;9.962;2024-02-26T02:00:10;4.80;99.90
4749;DHT22;2388;53.582;9.962;2024-02-26T02:02:37;4.70;99.90
4749;DHT22;2388;53.582;9.962;2024-02-26T02:05:04;4.70;99.90
4749;DHT22;2388;53.582;9.962;2024-02-26T02:07:31;4.70;99.90
4749;DHT22;2388;53.582;9.962;2024-02-26T02:09:57;4.60;99.90
4749;DHT22;2388;53.582;9.962;2024-02-26T02:12:22;4.70;99.90
4749;DHT22;2388;53.582;9.962;2024-02-26T02:14:48;4.60;99.90
4749;DHT22;2388;53.582;9.962;2024-02-26T02:17:13;4.60;99.90
4749;DHT22;2388;53.582;9.962;2024-02-26T02:19:39;4.50;99.90
4749;DHT22;2388;53.582;9.962;2024-02-26T02:22:04;4.50;99.90
4749;DHT22;2388;53.582;9.962;2024-02-26T02:24:30;4.50;99.90
4749;DHT22;2388;53.582;9.962;2024-02-26T02:26:55;4.50;99.90
4749;DHT22;2388;53.582;9.962;2024-02-26T02:29:21;4.50;99.90
4749;DHT22;2388;53.582;9.962;2024-02-26T02:31:47;4.50;99.90
4749;DHT22;2388;53.582;9.962;2024-02-26T02:34:12;4.50;99.90
4749;DHT22;2388;53.582;9.962;2024-02-26T02:36:51;4.50;99.90
4749;DHT22;2388;53.582;9.962;2024-02-26T02:39:16;4.50;99.90
4749;DHT22;2388;53.582;9.962;2024-02-26T02:41:42;4.50;99.90
4749;DHT22;2388;53.582;9.962;2024-02-26T02:44:07;4.50;99.90
4749;DHT22;2388;53.582;9.962;2024-02-26T02:46:33;4.50;99.90
4749;DHT22;2388;53.582;9.962;2024-02-26T02:49:00;4.50;99.90
4749;DHT22;2388;53.582;9.962;2024-02-26T02:51:26;4.50;99.90
4749;DHT22;2388;53.582;9.962;2024-02-26T02:53:51;4.50;99.90
4749;DHT22;2388;53.582;9.962;2024-02-26T02:56:17;4.50;99.90
4749;DHT22;2388;53.582;9.962;2024-02-26T02:58:42;4.50;99.90
4749;DHT22;2388;53.582;9.962;2024-02-26T03:01:08;4.50;99.90
4749;DHT22;2388;53.582;9.962;2024-02-26T03:03:33;4.40;99.90
4749;DHT22;2388;53.582;9.962;2024-02-26T03:05:58;4.40;99.90
4749;DHT22;2388;53.582;9.962;2024-02-26T03:08:24;4.40;99.90
4749;DHT22;2388;53.582;9.962;2024-02-26T03:10:51;4.40;99.90
4749;DHT22;2388;53.582;9.962;2024-02-26T03:13:16;4.40;99.90
4749;DHT22;2388;53.582;9.962;2024-02-26T03:15:42;4.40;99.90
4749;DHT22;2388;53.582;9.962;2024-02-26T03:18:07;4.40;99.90
4749;DHT22;2388;53.582;9.962;2024-02-26T03:20:33;4.40;99.90
4749;DHT22;2388;53.582;9.962;2024-02-26T03:22:58;4.40;99.90
4749;DHT22;2388;53.582;9.962;2024-02-26T03:25:24;4.40;99.90
4749;DHT22;2388;53.582;9.962;2024-02-26T03:27:49;4.40;99.90
4749;DHT22;2388;53.582;9.962;2024-02-26T03:30:15;4.40;99.90
4749;DHT22;2388;53.582;9.962;2024-02-26T03:32:41;4.40;99.90
4749;DHT22;2388;53.582;9.962;2024-02-26T03:35:07;4.40;99.90
4749;DHT22;2388;53.582;9.962;2024-02-26T03:37:33;4.50;99.90
4749;DHT22;2388;53.582;9.962;2024-02-26T03:39:58;4.50;99.90
4749;DHT22;2388;53.582;9.962;2024-02-26T03:42:24;4.50;99.90
4749;DHT22;2388;53.582;9.962;2024-02-26T03:44:50;4.40;99.90
4749;DHT22;2388;53.582;9.962;2024-02-26T03:47:16;4.40;99.90
4749;DHT22;2388;53.582;9.962;2024-02-26T03:49:41;4.40;99.90
4749;DHT22;2388;53.582;9.962;2024-02-26T03:52:07;4.40;99.90
4749;DHT22;2388;53.582;9.962;2024-02-26T03:54:32;4.40;99.90
4749;DHT22;2388;53.582;9.962;2024-02-26T03:56:58;4.30;99.90
4749;DHT22;2388;53.582;9.962;2024-02-26T03:59:23;4.30;99.90
4749;DHT22;2388;53.582;9.962;2024-02-26T04:01:50;4.30;99.90
4749;DHT22;2388;53.582;9.962;2024-02-26T04:04:16;4.20;99.90
4749;DHT22;2388;53.582;9.962;2024-02-26T04:06:46;4.20;99.90
4749;DHT22;2388;53.582;9.962;2024-02-26T04:09:13;4.10;99.90
4749;DHT22;2388;53.582;9.962;2024-02-26T04:11:39;4.20;99.90
4749;DHT22;2388;53.582;9.962;2024-02-26T04:14:04;4.20;99.90
4749;DHT22;2388;53.582;9.962;2024-02-26T04:16:31;4.20;99.90
4749;DHT22;2388;53.582;9.962;2024-02-26T04:18:56;4.30;99.90
4749;DHT22;2388;53.582;9.962;2024-02-26T04:21:22;4.30;99.90
4749;DHT22;2388;53.582;9.962;2024-02-26T04:23:47;4.30;99.90
4749;DHT22;2388;53.582;9.962;2024-02-26T04:26:14;4.40;99.90
4749;DHT22;2388;53.582;9.962;2024-02-26T04:28:40;4.40;99.90
4749;DHT22;2388;53.582;9.962;2024-02-26T04:31:05;4.40;99.90
4749;DHT22;2388;53.582;9.962;2024-02-26T04:33:34;4.40;99.90
4749;DHT22;2388;53.582;9.962;2024-02-26T04:35:59;4.30;99.90
4749;DHT22;2388;53.582;9.962;2024-02-26T04:38:25;4.20;99.90
4749;DHT22;2388;53.582;9.962;2024-02-26T04:40:50;4.10;99.90
4749;DHT22;2388;53.582;9.962;2024-02-26T04:43:16;4.10;99.90
4749;DHT22;2388;53.582;9.962;2024-02-26T04:45:43;4.10;99.90
4749;DHT22;2388;53.582;9.962;2024-02-26T04:48:08;4.10;99.90
4749;DHT22;2388;53.582;9.962;2024-02-26T04:50:33;4.10;99.90
4749;DHT22;2388;53.582;9.962;2024-02-26T04:52:59;4.00;99.90
4749;DHT22;2388;53.582;9.962;2024-02-26T04:55:24;4.00;99.90
4749;DHT22;2388;53.582;9.962;2024-02-26T04:57:50;4.00;99.90
4749;DHT22;2388;53.582;9.962;2024-02-26T05:00:16;4.00;99.90
4749;DHT22;2388;53.582;9.962;2024-02-26T05:02:41;3.90;99.90
4749;DHT22;2388;53.582;9.962;2024-02-26T05:05:07;3.90;99.90
4749;DHT22;2388;53.582;9.962;2024-02-26T05:07:34;4.00;99.90
4749;DHT22;2388;53.582;9.962;2024-02-26T05:10:04;4.00;99.90
4749;DHT22;2388;53.582;9.962;2024-02-26T05:12:30;3.90;99.90
4749;DHT22;2388;53.582;9.962;2024-02-26T05:14:56;3.90;99.90
4749;DHT22;2388;53.582;9.962;2024-02-26T05:17:21;3.90;99.90
4749;DHT22;2388;53.582;9.962;2024-02-26T05:19:47;3.80;99.90
4749;DHT22;2388;53.582;9.962;2024-02-26T05:22:12;3.80;99.90
4749;DHT22;2388;53.582;9.962;2024-02-26T05:24:38;3.70;99.90
4749;DHT22;2388;53.582;9.962;2024-02-26T05:27:04;3.80;99.90
4749;DHT22;2388;53.582;9.962;2024-02-26T05:29:29;3.70;99.90
4749;DHT22;2388;53.582;9.962;2024-02-26T05:31:55;3.70;99.90
4749;DHT22;2388;53.582;9.962;2024-02-26T05:34:20;3.80;99.90
4749;DHT22;2388;53.582;9.962;2024-02-26T05:36:47;3.80;99.90
4749;DHT22;2388;53.582;9.962;2024-02-26T05:39:12;3.80;99.90
4749;DHT22;2388;53.582;9.962;2024-02-26T05:41:38;3.80;99.90
4749;DHT22;2388;53.582;9.962;2024-02-26T05:44:03;3.80;99.90
4749;DHT22;2388;53.582;9.962;2024-02-26T05:46:29;3.80;99.90
4749;DHT22;2388;53.582;9.962;2024-02-26T05:48:55;3.80;99.90
4749;DHT22;2388;53.582;9.962;2024-02-26T05:51:20;3.80;99.90
4749;DHT22;2388;53.582;9.962;2024-02-26T05:53:46;3.80;99.90
4749;DHT22;2388;53.582;9.962;2024-02-26T05:56:19;3.70;99.90
4749;DHT22;2388;53.582;9.962;2024-02-26T05:58:45;3.70;99.90
4749;DHT22;2388;53.582;9.962;2024-02-26T06:01:10;3.70;99.90
4749;DHT22;2388;53.582;9.962;2024-02-26T06:03:36;3.50;99.90
4749;DHT22;2388;53.582;9.962;2024-02-26T06:06:01;3.50;99.90
4749;DHT22;2388;53.582;9.962;2024-02-26T06:08:27;3.50;99.90
4749;DHT22;2388;53.582;9.962;2024-02-26T06:10:52;3.60;99.90
4749;DHT22;2388;53.582;9.962;2024-02-26T06:13:18;3.60;99.90
4749;DHT22;2388;53.582;9.962;2024-02-26T06:15:43;3.50;99.90
4749;DHT22;2388;53.582;9.962;2024-02-26T06:18:09;3.60;99.90
4749;DHT22;2388;53.582;9.962;2024-02-26T06:20:34;3.60;99.90
4749;DHT22;2388;53.582;9.962;2024-02-26T06:23:00;3.60;99.90
4749;DHT22;2388;53.582;9.962;2024-02-26T06:25:25;3.60;99.90
4749;DHT22;2388;53.582;9.962;2024-02-26T06:27:51;3.60;99.90
4749;DHT22;2388;53.582;9.962;2024-02-26T06:30:16;3.60;99.90
4749;DHT22;2388;53.582;9.962;2024-02-26T06:32:42;3.50;99.90
4749;DHT22;2388;53.582;9.962;2024-02-26T06:35:07;3.60;99.90
4749;DHT22;2388;53.582;9.962;2024-02-26T06:37:35;3.60;99.90
4749;DHT22;2388;53.582;9.962;2024-02-26T06:40:01;3.60;99.90
4749;DHT22;2388;53.582;9.962;2024-02-26T06:42:31;3.50;99.90
4749;DHT22;2388;53.582;9.962;2024-02-26T06:44:57;3.50;99.90
4749;DHT22;2388;53.582;9.962;2024-02-26T06:47:23;3.50;99.90
4749;DHT22;2388;53.582;9.962;2024-02-26T06:49:48;3.50;99.90
4749;DHT22;2388;53.582;9.962;2024-02-26T06:52:14;3.50;99.90
4749;DHT22;2388;53.582;9.962;2024-02-26T06:54:39;3.50;99.90
4749;DHT22;2388;53.582;9.962;2024-02-26T06:57:05;3.60;99.90
4749;DHT22;2388;53.582;9.962;2024-02-26T06:59:30;3.60;99.90
4749;DHT22;2388;53.582;9.962;2024-02-26T07:01:56;3.60;99.90
4749;DHT22;2388;53.582;9.962;2024-02-26T07:04:21;3.60;99.90
4749;DHT22;2388;53.582;9.962;2024-02-26T07:06:47;3.60;99.90
4749;DHT22;2388;53.582;9.962;2024-02-26T07:09:13;3.60;99.90
4749;DHT22;2388;53.582;9.962;2024-02-26T07:11:39;3.60;99.90
4749;DHT22;2388;53.582;9.962;2024-02-26T07:14:08;3.60;99.90
4749;DHT22;2388;53.582;9.962;2024-02-26T07:16:33;3.60;99.90
4749;DHT22;2388;53.582;9.962;2024-02-26T07:18:59;3.60;99.90
4749;DHT22;2388;53.582;9.962;2024-02-26T07:21:24;3.60;99.90
4749;DHT22;2388;53.582;9.962;2024-02-26T07:23:50;3.60;99.90
4749;DHT22;2388;53.582;9.962;2024-02-26T07:26:15;3.60;99.90
4749;DHT22;2388;53.582;9.962;2024-02-26T07:28:42;3.60;99.90
4749;DHT22;2388;53.582;9.962;2024-02-26T07:31:08;3.60;99.90
4749;DHT22;2388;53.582;9.962;2024-02-26T07:33:33;3.70;99.90
4749;DHT22;2388;53.582;9.962;2024-02-26T07:35:59;3.70;99.90
4749;DHT22;2388;53.582;9.962;2024-02-26T07:38:24;3.70;99.90
4749;DHT22;2388;53.582;9.962;2024-02-26T07:40:50;3.70;99.90
4749;DHT22;2388;53.582;9.962;2024-02-26T07:43:15;3.80;99.90
4749;DHT22;2388;53.582;9.962;2024-02-26T07:45:41;3.90;99.90
4749;DHT22;2388;53.582;9.962;2024-02-26T07:48:07;3.90;99.90
4749;DHT22;2388;53.582;9.962;2024-02-26T07:50:32;3.90;99.90
4749;DHT22;2388;53.582;9.962;2024-02-26T07:52:58;3.90;99.90
4749;DHT22;2388;53.582;9.962;2024-02-26T07:55:23;4.00;99.90
4749;DHT22;2388;53.582;9.962;2024-02-26T07:57:49;4.00;99.90
4749;DHT22;2388;53.582;9.962;2024-02-26T08:00:15;4.00;99.90
4749;DHT22;2388;53.582;9.962;2024-02-26T08:02:43;4.00;99.90
4749;DHT22;2388;53.582;9.962;2024-02-26T08:05:09;4.10;99.90
4749;DHT22;2388;53.582;9.962;2024-02-26T08:07:35;4.10;99.90
4749;DHT22;2388;53.582;9.962;2024-02-26T08:10:00;4.10;99.90
4749;DHT22;2388;53.582;9.962;2024-02-26T08:12:26;4.00;99.90
4749;DHT22;2388;53.582;9.962;2024-02-26T08:14:51;4.10;99.90
4749;DHT22;2388;53.582;9.962;2024-02-26T08:17:17;4.10;99.90
4749;DHT22;2388;53.582;9.962;2024-02-26T08:19:42;4.10;99.90
4749;DHT22;2388;53.582;9.962;2024-02-26T08:22:08;4.10;99.90
4749;DHT22;2388;53.582;9.962;2024-02-26T08:24:35;4.10;99.90
4749;DHT22;2388;53.582;9.962;2024-02-26T08:27:00;4.10;99.90
4749;DHT22;2388;53.582;9.962;2024-02-26T08:29:25;4.10;99.90
4749;DHT22;2388;53.582;9.962;2024-02-26T08:31:51;4.10;99.90
4749;DHT22;2388;53.582;9.962;2024-02-26T08:34:16;4.10;99.90
4749;DHT22;2388;53.582;9.962;2024-02-26T08:36:42;4.10;99.90
4749;DHT22;2388;53.582;9.962;2024-02-26T08:39:08;4.00;99.90
4749;DHT22;2388;53.582;9.962;2024-02-26T08:41:34;4.10;99.90
4749;DHT22;2388;53.582;9.962;2024-02-26T08:43:59;4.00;99.90
4749;DHT22;2388;53.582;9.962;2024-02-26T08:46:25;4.00;99.90
4749;DHT22;2388;53.582;9.962;2024-02-26T08:48:50;4.00;99.90
4749;DHT22;2388;53.582;9.962;2024-02-26T08:51:16;4.00;99.90
4749;DHT22;2388;53.582;9.962;2024-02-26T08:53:42;4.00;99.90
4749;DHT22;2388;53.582;9.962;2024-02-26T08:56:07;4.00;99.90
4749;DHT22;2388;53.582;9.962;2024-02-26T08:58:33;4.00;99.90
4749;DHT22;2388;53.582;9.962;2024-02-26T09:00:58;4.00;99.90
4749;DHT22;2388;53.582;9.962;2024-02-26T09:03:24;4.10;99.90
4749;DHT22;2388;53.582;9.962;2024-02-26T09:05:49;4.10;99.90
4749;DHT22;2388;53.582;9.962;2024-02-26T09:08:15;4.10;99.90
4749;DHT22;2388;53.582;9.962;2024-02-26T09:10:41;4.20;99.90
4749;DHT22;2388;53.582;9.962;2024-02-26T09:13:07;4.30;99.90
4749;DHT22;2388;53.582;9.962;2024-02-26T09:15:32;4.30;99.90
4749;DHT22;2388;53.582;9.962;2024-02-26T09:17:58;4.30;99.90
4749;DHT22;2388;53.582;9.962;2024-02-26T09:20:23;4.40;99.90
4749;DHT22;2388;53.582;9.962;2024-02-26T09:22:49;4.40;99.90
4749;DHT22;2388;53.582;9.962;2024-02-26T09:25:16;4.50;99.90
4749;DHT22;2388;53.582;9.962;2024-02-26T09:27:42;4.50;99.90
4749;DHT22;2388;53.582;9.962;2024-02-26T09:30:10;4.60;99.90
4749;DHT22;2388;53.582;9.962;2024-02-26T09:32:35;4.60;99.90
4749;DHT22;2388;53.582;9.962;2024-02-26T09:35:01;4.60;99.90
4749;DHT22;2388;53.582;9.962;2024-02-26T09:37:26;4.70;99.90
4749;DHT22;2388;53.582;9.962;2024-02-26T09:39:52;4.70;99.90
4749;DHT22;2388;53.582;9.962;2024-02-26T09:42:19;4.70;99.90
4749;DHT22;2388;53.582;9.962;2024-02-26T09:44:45;4.80;99.90
4749;DHT22;2388;53.582;9.962;2024-02-26T09:47:11;4.80;99.90
4749;DHT22;2388;53.582;9.962;2024-02-26T09:49:38;4.80;99.90
4749;DHT22;2388;53.582;9.962;2024-02-26T09:52:08;4.80;99.90
4749;DHT22;2388;53.582;9.962;2024-02-26T09:54:35;4.80;99.90
4749;DHT22;2388;53.582;9.962;2024-02-26T09:57:03;4.90;99.90
4749;DHT22;2388;53.582;9.962;2024-02-26T09:59:41;4.90;99.90
4749;DHT22;2388;53.582;9.962;2024-02-26T10:02:12;4.90;99.90
4749;DHT22;2388;53.582;9.962;2024-02-26T10:04:39;4.90;99.90
4749;DHT22;2388;53.582;9.962;2024-02-26T10:07:10;4.90;99.90
4749;DHT22;2388;53.582;9.962;2024-02-26T10:09:36;4.90;99.90
4749;DHT22;2388;53.582;9.962;2024-02-26T10:12:03;4.90;99.90
4749;DHT22;2388;53.582;9.962;2024-02-26T10:14:29;4.90;99.90
4749;DHT22;2388;53.582;9.962;2024-02-26T10:16:54;4.90;99.90
4749;DHT22;2388;53.582;9.962;2024-02-26T10:19:25;5.00;99.90
4749;DHT22;2388;53.582;9.962;2024-02-26T10:21:57;5.00;99.90
4749;DHT22;2388;53.582;9.962;2024-02-26T10:24:24;5.10;99.90
4749;DHT22;2388;53.582;9.962;2024-02-26T10:26:51;5.00;99.90
4749;DHT22;2388;53.582;9.962;2024-02-26T10:29:18;5.00;99.90
4749;DHT22;2388;53.582;9.962;2024-02-26T10:31:44;5.10;99.90
4749;DHT22;2388;53.582;9.962;2024-02-26T10:34:10;5.20;99.90
4749;DHT22;2388;53.582;9.962;2024-02-26T10:36:36;5.20;99.90
4749;DHT22;2388;53.582;9.962;2024-02-26T10:39:03;5.20;99.90
4749;DHT22;2388;53.582;9.962;2024-02-26T10:41:30;5.20;99.90
4749;DHT22;2388;53.582;9.962;2024-02-26T10:43:55;5.30;99.90
4749;DHT22;2388;53.582;9.962;2024-02-26T10:46:21;5.30;99.90
4749;DHT22;2388;53.582;9.962;2024-02-26T10:48:50;5.30;99.90
4749;DHT22;2388;53.582;9.962;2024-02-26T10:51:19;5.40;99.90
4749;DHT22;2388;53.582;9.962;2024-02-26T10:53:47;5.40;99.90
4749;DHT22;2388;53.582;9.962;2024-02-26T10:56:16;5.40;99.90
4749;DHT22;2388;53.582;9.962;2024-02-26T10:58:45;5.40;99.90
4749;DHT22;2388;53.582;9.962;2024-02-26T11:01:12;5.50;99.90
4749;DHT22;2388;53.582;9.962;2024-02-26T11:03:38;5.50;99.90
4749;DHT22;2388;53.582;9.962;2024-02-26T11:06:05;5.60;99.90
4749;DHT22;2388;53.582;9.962;2024-02-26T11:08:31;5.70;99.90
4749;DHT22;2388;53.582;9.962;2024-02-26T11:10:58;5.70;99.90
4749;DHT22;2388;53.582;9.962;2024-02-26T11:13:27;5.80;99.90
4749;DHT22;2388;53.582;9.962;2024-02-26T11:15:55;5.90;99.90
4749;DHT22;2388;53.582;9.962;2024-02-26T11:18:23;6.00;99.90
4749;DHT22;2388;53.582;9.962;2024-02-26T11:20:51;6.00;99.90
4749;DHT22;2388;53.582;9.962;2024-02-26T11:23:17;6.30;99.90
4749;DHT22;2388;53.582;9.962;2024-02-26T11:25:43;6.40;99.90
4749;DHT22;2388;53.582;9.962;2024-02-26T11:28:11;6.50;99.90
4749;DHT22;2388;53.582;9.962;2024-02-26T11:30:42;6.70;99.90
4749;DHT22;2388;53.582;9.962;2024-02-26T11:33:09;6.80;99.90
4749;DHT22;2388;53.582;9.962;2024-02-26T11:35:36;6.80;99.90
4749;DHT22;2388;53.582;9.962;2024-02-26T11:38:02;7.00;99.90
4749;DHT22;2388;53.582;9.962;2024-02-26T11:40:29;7.10;99.90
4749;DHT22;2388;53.582;9.962;2024-02-26T11:42:56;7.10;99.90
4749;DHT22;2388;53.582;9.962;2024-02-26T11:48:13;6.90;99.90
4749;DHT22;2388;53.582;9.962;2024-02-26T11:50:40;6.80;99.90
4749;DHT22;2388;53.582;9.962;2024-02-26T11:53:28;6.80;99.90
4749;DHT22;2388;53.582;9.962;2024-02-26T12:04:02;6.80;99.90
4749;DHT22;2388;53.582;9.962;2024-02-26T12:06:29;6.90;99.90
4749;DHT22;2388;53.582;9.962;2024-02-26T12:08:56;6.90;99.90
4749;DHT22;2388;53.582;9.962;2024-02-26T12:11:21;6.90;99.90
4749;DHT22;2388;53.582;9.962;2024-02-26T12:13:47;7.00;99.90
4749;DHT22;2388;53.582;9.962;2024-02-26T12:16:38;6.90;99.90
4749;DHT22;2388;53.582;9.962;2024-02-26T12:19:05;7.00;99.90
4749;DHT22;2388;53.582;9.962;2024-02-26T12:21:36;7.00;99.90
4749;DHT22;2388;53.582;9.962;2024-02-26T12:24:12;7.10;99.90
4749;DHT22;2388;53.582;9.962;2024-02-26T12:26:39;7.10;99.90
4749;DHT22;2388;53.582;9.962;2024-02-26T12:29:04;7.20;99.90
4749;DHT22;2388;53.582;9.962;2024-02-26T12:31:31;7.20;99.90
4749;DHT22;2388;53.582;9.962;2024-02-26T12:33:57;7.20;99.90
4749;DHT22;2388;53.582;9.962;2024-02-26T12:36:22;7.20;99.90
4749;DHT22;2388;53.582;9.962;2024-02-26T12:38:50;7.20;99.90
4749;DHT22;2388;53.582;9.962;2024-02-26T12:41:16;7.20;99.90
4749;DHT22;2388;53.582;9.962;2024-02-26T12:43:41;7.20;99.90
4749;DHT22;2388;53.582;9.962;2024-02-26T12:46:07;7.10;99.90
4749;DHT22;2388;53.582;9.962;2024-02-26T12:48:33;7.10;99.90
4749;DHT22;2388;53.582;9.962;2024-02-26T12:50:59;7.10;99.90
4749;DHT22;2388;53.582;9.962;2024-02-26T12:53:25;7.20;99.90
4749;DHT22;2388;53.582;9.962;2024-02-26T12:55:51;7.20;99.90
4749;DHT22;2388;53.582;9.962;2024-02-26T12:58:17;7.20;99.90
4749;DHT22;2388;53.582;9.962;2024-02-26T13:00:45;7.10;99.90
4749;DHT22;2388;53.582;9.962;2024-02-26T13:03:12;7.00;99.90
4749;DHT22;2388;53.582;9.962;2024-02-26T13:05:38;6.80;99.90
4749;DHT22;2388;53.582;9.962;2024-02-26T13:08:05;6.80;99.90
4749;DHT22;2388;53.582;9.962;2024-02-26T13:10:31;6.90;99.90
4749;DHT22;2388;53.582;9.962;2024-02-26T13:12:57;7.00;99.90
4749;DHT22;2388;53.582;9.962;2024-02-26T13:15:22;7.00;99.90
4749;DHT22;2388;53.582;9.962;2024-02-26T13:17:49;7.00;99.90
4749;DHT22;2388;53.582;9.962;2024-02-26T13:20:28;7.10;99.90
4749;DHT22;2388;53.582;9.962;2024-02-26T13:23:20;7.10;99.90
4749;DHT22;2388;53.582;9.962;2024-02-26T13:25:45;7.20;99.90
4749;DHT22;2388;53.582;9.962;2024-02-26T13:28:15;7.30;99.90
4749;DHT22;2388;53.582;9.962;2024-02-26T13:30:41;7.30;99.90
4749;DHT22;2388;53.582;9.962;2024-02-26T13:33:11;7.30;99.90
4749;DHT22;2388;53.582;9.962;2024-02-26T13:35:38;7.30;99.90
4749;DHT22;2388;53.582;9.962;2024-02-26T13:38:05;7.20;99.90
4749;DHT22;2388;53.582;9.962;2024-02-26T13:40:31;7.30;99.90
4749;DHT22;2388;53.582;9.962;2024-02-26T13:42:57;7.30;99.90
4749;DHT22;2388;53.582;9.962;2024-02-26T13:45:22;7.30;99.90
4749;DHT22;2388;53.582;9.962;2024-02-26T13:47:48;7.30;99.90
4749;DHT22;2388;53.582;9.962;2024-02-26T13:50:13;7.30;99.90
4749;DHT22;2388;53.582;9.962;2024-02-26T13:52:39;7.40;99.90
4749;DHT22;2388;53.582;9.962;2024-02-26T13:55:05;7.30;99.90
4749;DHT22;2388;53.582;9.962;2024-02-26T13:57:30;7.40;99.90
4749;DHT22;2388;53.582;9.962;2024-02-26T13:59:56;7.40;99.90
4749;DHT22;2388;53.582;9.962;2024-02-26T14:02:22;7.30;99.90
4749;DHT22;2388;53.582;9.962;2024-02-26T14:04:47;7.40;99.90
4749;DHT22;2388;53.582;9.962;2024-02-26T14:07:13;7.40;99.90
4749;DHT22;2388;53.582;9.962;2024-02-26T14:09:39;7.40;99.90
4749;DHT22;2388;53.582;9.962;2024-02-26T14:12:05;7.40;99.90
4749;DHT22;2388;53.582;9.962;2024-02-26T14:14:30;7.50;99.90
4749;DHT22;2388;53.582;9.962;2024-02-26T14:16:58;7.50;99.90
4749;DHT22;2388;53.582;9.962;2024-02-26T14:19:24;7.70;99.90
4749;DHT22;2388;53.582;9.962;2024-02-26T14:21:49;7.60;99.90
4749;DHT22;2388;53.582;9.962;2024-02-26T14:24:15;7.50;99.90
4749;DHT22;2388;53.582;9.962;2024-02-26T14:26:41;7.50;99.90
4749;DHT22;2388;53.582;9.962;2024-02-26T14:29:06;7.50;99.90
4749;DHT22;2388;53.582;9.962;2024-02-26T14:31:32;7.40;99.90
4749;DHT22;2388;53.582;9.962;2024-02-26T14:33:58;7.30;99.90
4749;DHT22;2388;53.582;9.962;2024-02-26T14:36:24;7.30;99.90
4749;DHT22;2388;53.582;9.962;2024-02-26T14:38:51;7.30;99.90
4749;DHT22;2388;53.582;9.962;2024-02-26T14:41:17;7.30;99.90
4749;DHT22;2388;53.582;9.962;2024-02-26T14:43:42;7.30;99.90
4749;DHT22;2388;53.582;9.962;2024-02-26T14:46:08;7.30;99.90
4749;DHT22;2388;53.582;9.962;2024-02-26T14:48:33;7.20;99.90
4749;DHT22;2388;53.582;9.962;2024-02-26T14:50:59;7.20;99.90
4749;DHT22;2388;53.582;9.962;2024-02-26T14:53:25;7.20;99.90
4749;DHT22;2388;53.582;9.962;2024-02-26T14:55:51;7.20;99.90
4749;DHT22;2388;53.582;9.962;2024-02-26T14:58:17;7.10;99.90
4749;DHT22;2388;53.582;9.962;2024-02-26T15:00:42;7.10;99.90
4749;DHT22;2388;53.582;9.962;2024-02-26T15:03:08;7.10;99.90
4749;DHT22;2388;53.582;9.962;2024-02-26T15:05:34;7.10;99.90
4749;DHT22;2388;53.582;9.962;2024-02-26T15:07:59;7.10;99.90
4749;DHT22;2388;53.582;9.962;2024-02-26T15:10:25;7.10;99.90
4749;DHT22;2388;53.582;9.962;2024-02-26T15:12:51;7.00;99.90
4749;DHT22;2388;53.582;9.962;2024-02-26T15:15:23;7.00;99.90
4749;DHT22;2388;53.582;9.962;2024-02-26T15:17:49;7.00;99.90
4749;DHT22;2388;53.582;9.962;2024-02-26T15:20:15;6.90;99.90
4749;DHT22;2388;53.582;9.962;2024-02-26T15:22:40;6.90;99.90
4749;DHT22;2388;53.582;9.962;2024-02-26T15:25:07;6.90;99.90
4749;DHT22;2388;53.582;9.962;2024-02-26T15:27:33;6.80;99.90
4749;DHT22;2388;53.582;9.962;2024-02-26T15:29:59;6.80;99.90
4749;DHT22;2388;53.582;9.962;2024-02-26T15:32:25;6.70;99.90
4749;DHT22;2388;53.582;9.962;2024-02-26T15:34:52;6.70;99.90
4749;DHT22;2388;53.582;9.962;2024-02-26T15:37:18;6.70;99.90
4749;DHT22;2388;53.582;9.962;2024-02-26T15:39:44;6.70;99.90
4749;DHT22;2388;53.582;9.962;2024-02-26T15:42:10;6.60;99.90
4749;DHT22;2388;53.582;9.962;2024-02-26T15:44:40;6.60;99.90
4749;DHT22;2388;53.582;9.962;2024-02-26T15:47:06;6.50;99.90
4749;DHT22;2388;53.582;9.962;2024-02-26T15:49:32;6.50;99.90
4749;DHT22;2388;53.582;9.962;2024-02-26T15:51:58;6.40;99.90
4749;DHT22;2388;53.582;9.962;2024-02-26T15:54:25;6.40;99.90
4749;DHT22;2388;53.582;9.962;2024-02-26T15:56:51;6.40;99.90
4749;DHT22;2388;53.582;9.962;2024-02-26T15:59:17;6.40;99.90
4749;DHT22;2388;53.582;9.962;2024-02-26T16:01:42;6.40;99.90
4749;DHT22;2388;53.582;9.962;2024-02-26T16:04:08;6.30;99.90
4749;DHT22;2388;53.582;9.962;2024-02-26T16:06:41;6.30;99.90
4749;DHT22;2388;53.582;9.962;2024-02-26T16:09:07;6.30;99.90
4749;DHT22;2388;53.582;9.962;2024-02-26T16:11:33;6.30;99.90
4749;DHT22;2388;53.582;9.962;2024-02-26T16:14:21;6.30;99.90
4749;DHT22;2388;53.582;9.962;2024-02-26T16:17:01;6.30;99.90
4749;DHT22;2388;53.582;9.962;2024-02-26T16:19:27;6.20;99.90
4749;DHT22;2388;53.582;9.962;2024-02-26T16:21:53;6.10;99.90